Avoca, NE (68307)

3:40 PM CDT on September 01, 2015 (GMT -0500)
Hawkins Home - Northeast | | Change Station
CLOSE
Current Station
Personal Weather Station
Location: Syracuse, NE
Elevation: 1100 ft
Nearby Weather Stations

Elev 1100 ft 40.66 °N, 96.18 °W | Updated 12 seconds ago

Clear
Clear
91.5 °F
Feels Like 96 °F
N
5.8
Wind Variable Wind from SE
Gusts 5.8 mph

Today
High -- | Low -- °F
--% Chance of Precip.
Yesterday
High -- | Low -- °F
Precip. -- in
6:51 AM 7:57 PM
Waning Gibbous, 86% visible
Pressure 29.93 in
Visibility 10.0 miles
Clouds Clear
Heat Index 96 °F
Dew Point 68 °F
Humidity 46%
Rainfall 0.00 in
Snow Depth Not available.
UV 7 out of 12
Pollen 11.10 out of 12
Air Quality Not available.
Flu Activity Not available.
METAR KPMV 012035Z AUTO 15009KT 10SM CLR 31/21 A2993 RMK AO2 T03050208
Pressure 29.93 in
Visibility 10.0 miles
Clouds Clear
Heat Index 96 °F
Dew Point 68 °F
Humidity 46%
Rainfall 0.00 in
Snow Depth Not available.
UV 7 out of 12
Pollen 11.10 out of 12
Air Quality Not available.
Flu Activity Not available.
METAR KPMV 012035Z AUTO 15009KT 10SM CLR 31/21 A2993 RMK AO2 T03050208

10-Day Weather Forecast

×

Almanac

Astronomy

Sep. 01, 2015 Rise Set
Actual Time
Civil Twilight
Nautical Twilight
Astronomical Twilight
Moon
Length of Visible Light
Length of Day
Tomorrow will be .
, % of the Moon is Illuminated

Today's Extremes

State Highs State Lows

Community

WunderPhotos

Upload Photos

1,851,608 photos uploaded!

WunderBlogs® & News

Nearby

Air Quality

  Air Quality AQ Index Pollutant
Not available.

Snow Depth

Station Depth Elevation

Earthquake Activity

City Distance Mag. Time & Date
Minimum magnitude displayed is 2.5.

Coastal Water Temperatures

Place Temperature

Stations

Nearby Weather Stations

Station Location Temp. Windchill Dew Point Humidity Wind Precip. Elev Updated Type